Time;durP1;ratioP1;P1;durP2;ratioP2;P2;SDS_P1;SDS_P2;PMS_P1;PMS_P2;Temp;Humidity;BMP_temperature;BMP_pressure;BME280_temperature;BME280_humidity;BME280_pressure;Samples;Min_cycle;Max_cycle;Signal;HPM_P1;HPM_P2
2022/11/04 00:01:36;;;;;;;1.42;0.70;;;11.00;99.90;;;;;;4971453;28;20410;-73
2022/11/04 00:04:02;;;;;;;1.30;0.90;;;11.00;99.90;;;;;;4986469;28;20398;-72
2022/11/04 00:06:27;;;;;;;0.85;0.70;;;11.00;99.90;;;;;;4974851;28;20758;-72
2022/11/04 00:08:55;;;;;;;0.75;0.70;;;11.00;99.90;;;;;;4975067;28;20439;-72
2022/11/04 00:14:08;;;;;;;1.40;0.80;;;10.90;99.90;;;;;;4974991;28;20475;-72
2022/11/04 00:19:18;;;;;;;1.73;0.80;;;10.80;99.90;;;;;;4974945;28;20771;-71
2022/11/04 00:30:07;;;;;;;0.80;0.70;;;10.90;99.90;;;;;;4974939;28;20431;-73
2022/11/04 00:35:17;;;;;;;1.20;0.90;;;10.90;99.90;;;;;;4974871;28;20532;-73
2022/11/04 00:37:44;;;;;;;1.90;1.08;;;10.90;99.90;;;;;;4973421;28;20443;-73
2022/11/04 00:40:12;;;;;;;1.08;0.75;;;10.80;99.90;;;;;;4974633;28;20404;-72
2022/11/04 00:42:38;;;;;;;1.70;0.80;;;10.80;99.90;;;;;;4974255;28;20866;-73
2022/11/04 00:45:04;;;;;;;1.08;0.80;;;10.80;99.90;;;;;;4973326;28;20402;-73
2022/11/04 00:47:30;;;;;;;0.80;0.70;;;10.80;99.90;;;;;;4973173;28;20914;-73
2022/11/04 00:49:56;;;;;;;0.70;0.70;;;10.80;99.90;;;;;;4974576;28;20389;-73
2022/11/04 00:52:21;;;;;;;1.00;0.90;;;10.80;99.90;;;;;;4974945;28;20396;-73
2022/11/04 00:54:47;;;;;;;0.70;0.60;;;10.70;99.90;;;;;;4972589;28;20434;-73
2022/11/04 00:57:13;;;;;;;1.10;0.70;;;10.70;99.90;;;;;;4974358;28;20396;-73
2022/11/04 00:59:40;;;;;;;1.00;0.60;;;10.70;99.90;;;;;;4972788;28;20418;-73
2022/11/04 01:02:06;;;;;;;1.10;0.90;;;10.70;99.90;;;;;;4974273;28;20388;-72
2022/11/04 01:04:32;;;;;;;1.63;0.80;;;10.70;99.90;;;;;;4973756;28;20443;-73
2022/11/04 01:06:58;;;;;;;1.90;0.60;;;10.70;99.90;;;;;;4974211;28;20423;-73
2022/11/04 01:09:23;;;;;;;1.70;0.70;;;10.70;99.90;;;;;;4973908;28;20376;-73
2022/11/04 01:11:49;;;;;;;1.53;0.93;;;10.70;99.90;;;;;;4974062;28;20755;-72
2022/11/04 01:14:15;;;;;;;1.07;0.70;;;10.70;99.90;;;;;;4972292;28;20412;-73
2022/11/04 01:16:42;;;;;;;1.55;0.80;;;10.70;99.90;;;;;;4973617;28;20385;-73
2022/11/04 01:19:08;;;;;;;0.90;0.70;;;10.60;99.90;;;;;;4973850;28;20478;-73
2022/11/04 01:21:34;;;;;;;1.37;1.27;;;10.60;99.90;;;;;;4972371;28;20538;-73
2022/11/04 01:23:59;;;;;;;1.10;0.70;;;10.70;99.90;;;;;;4972874;28;20431;-72
2022/11/04 01:26:27;;;;;;;0.97;0.60;;;10.60;99.90;;;;;;4973760;28;20867;-72
2022/11/04 01:28:55;;;;;;;1.42;0.85;;;10.70;99.90;;;;;;4973547;28;20403;-73
2022/11/04 01:31:24;;;;;;;2.10;0.60;;;10.60;99.90;;;;;;4973686;28;20423;-72
2022/11/04 01:33:50;;;;;;;1.33;0.70;;;10.60;99.90;;;;;;4972668;28;20392;-73
2022/11/04 01:36:17;;;;;;;0.90;0.80;;;10.60;99.90;;;;;;4973155;28;20430;-74
2022/11/04 01:38:42;;;;;;;0.80;0.68;;;10.60;99.90;;;;;;4973568;28;20720;-74
2022/11/04 01:41:14;;;;;;;1.30;0.80;;;10.70;99.90;;;;;;4973536;28;20411;-74
2022/11/04 01:43:43;;;;;;;1.80;1.00;;;10.70;99.90;;;;;;4971689;28;20403;-74
2022/11/04 01:46:16;;;;;;;0.70;0.60;;;10.70;99.90;;;;;;4973405;28;20388;-73
2022/11/04 01:48:41;;;;;;;0.70;0.70;;;10.70;99.90;;;;;;4973338;28;20827;-73
2022/11/04 01:51:07;;;;;;;1.43;0.70;;;10.70;99.90;;;;;;4973179;28;20492;-73
2022/11/04 01:53:38;;;;;;;0.80;0.60;;;10.70;99.90;;;;;;4972922;28;20471;-74
2022/11/04 01:56:11;;;;;;;0.98;0.77;;;10.70;99.90;;;;;;4973299;28;20458;-74
2022/11/04 01:58:41;;;;;;;1.80;0.80;;;10.70;99.90;;;;;;4973279;28;20396;-73
2022/11/04 02:01:10;;;;;;;0.80;0.70;;;10.70;99.90;;;;;;4973024;28;20428;-73
2022/11/04 02:03:51;;;;;;;1.40;1.10;;;10.60;99.90;;;;;;4972625;28;20384;-73
2022/11/04 02:06:19;;;;;;;0.97;0.60;;;10.60;99.90;;;;;;4973091;28;20396;-74
2022/11/04 02:08:46;;;;;;;4.10;1.00;;;10.60;99.90;;;;;;4971482;28;21283;-74
2022/11/04 02:12:48;;;;;;;2.35;0.80;;;10.60;99.90;;;;;;4971644;28;20751;-74
2022/11/04 02:13:58;;;;;;;1.10;0.70;;;10.60;99.90;;;;;;4972378;28;20434;-75
2022/11/04 02:16:52;;;;;;;0.60;0.50;;;10.60;99.90;;;;;;4972863;28;20392;-75
2022/11/04 02:19:20;;;;;;;2.80;0.80;;;10.60;99.90;;;;;;4971571;28;20415;-75
2022/11/04 02:22:16;;;;;;;1.40;0.77;;;10.60;99.90;;;;;;4972769;28;20408;-75
2022/11/04 02:25:00;;;;;;;1.27;1.00;;;10.60;99.90;;;;;;4972431;28;20384;-76
2022/11/04 02:27:46;;;;;;;1.90;0.90;;;10.60;99.90;;;;;;4971824;28;20750;-75
2022/11/04 02:30:17;;;;;;;1.90;0.80;;;10.60;99.90;;;;;;4971289;28;20401;-75
2022/11/04 02:32:48;;;;;;;0.68;0.60;;;10.70;99.90;;;;;;4970956;28;20427;-75
2022/11/04 02:35:36;;;;;;;0.90;0.70;;;10.60;99.90;;;;;;4971733;28;20893;-75
2022/11/04 02:38:42;;;;;;;1.00;0.70;;;10.60;99.90;;;;;;4972808;28;20388;-75
2022/11/04 02:41:11;;;;;;;0.93;0.60;;;10.60;99.90;;;;;;4972390;28;20412;-76
2022/11/04 02:44:11;;;;;;;3.50;0.90;;;10.60;99.90;;;;;;4970727;28;20540;-74
2022/11/04 02:46:59;;;;;;;1.10;0.70;;;10.60;99.90;;;;;;4972274;28;20438;-74
2022/11/04 02:49:51;;;;;;;1.20;0.80;;;10.60;99.90;;;;;;4972093;28;20388;-76
2022/11/04 02:52:28;;;;;;;0.90;0.80;;;10.60;99.90;;;;;;4972068;28;20384;-74
2022/11/04 02:55:09;;;;;;;0.70;0.70;;;10.60;99.90;;;;;;4971592;28;20418;-73
2022/11/04 02:57:37;;;;;;;0.90;0.90;;;10.50;99.90;;;;;;4972132;28;20394;-73
2022/11/04 03:00:06;;;;;;;1.88;0.90;;;10.60;99.90;;;;;;4971720;28;20507;-73
2022/11/04 03:02:55;;;;;;;1.20;1.00;;;10.50;99.90;;;;;;4971511;28;20495;-72
2022/11/04 03:05:29;;;;;;;0.90;0.80;;;10.60;99.90;;;;;;4970238;28;20392;-73
2022/11/04 03:07:59;;;;;;;1.63;0.60;;;10.60;99.90;;;;;;4971782;28;20475;-72
2022/11/04 03:10:30;;;;;;;1.00;0.80;;;10.60;99.90;;;;;;4971833;28;20384;-73
2022/11/04 03:13:12;;;;;;;0.87;0.80;;;10.60;99.90;;;;;;4971468;28;20400;-73
2022/11/04 03:15:44;;;;;;;1.00;0.90;;;10.60;99.90;;;;;;4971584;28;20395;-73
2022/11/04 03:18:23;;;;;;;1.60;0.90;;;10.60;99.90;;;;;;4971733;28;20396;-73
2022/11/04 03:20:50;;;;;;;1.85;0.77;;;10.60;99.90;;;;;;4971467;28;20466;-71
2022/11/04 03:23:16;;;;;;;0.80;0.77;;;10.60;99.90;;;;;;4971421;28;20380;-72
2022/11/04 03:25:48;;;;;;;4.82;0.85;;;10.60;99.90;;;;;;4971050;28;20388;-71
2022/11/04 03:28:29;;;;;;;0.77;0.68;;;10.60;99.90;;;;;;4971284;28;20879;-72
2022/11/04 03:31:00;;;;;;;1.58;1.00;;;10.50;99.90;;;;;;4971418;28;20724;-72
2022/11/04 03:33:34;;;;;;;1.00;0.90;;;10.50;99.90;;;;;;4971255;28;20937;-72
2022/11/04 03:36:01;;;;;;;0.68;0.68;;;10.50;99.90;;;;;;4971366;28;20423;-71
2022/11/04 03:38:27;;;;;;;1.00;0.80;;;10.50;99.90;;;;;;4970214;28;20461;-71
2022/11/04 03:40:53;;;;;;;2.17;0.70;;;10.50;99.90;;;;;;4971211;28;20744;-72
2022/11/04 03:43:29;;;;;;;0.60;0.60;;;10.50;99.90;;;;;;4969828;28;20391;-72
2022/11/04 03:45:55;;;;;;;1.08;0.80;;;10.50;99.90;;;;;;4971311;28;20921;-71
2022/11/04 03:48:21;;;;;;;0.82;0.70;;;10.50;99.90;;;;;;4970397;28;20396;-72
2022/11/04 03:50:48;;;;;;;1.55;1.10;;;10.40;99.90;;;;;;4971334;28;20403;-70
2022/11/04 03:53:22;;;;;;;0.80;0.60;;;10.50;99.90;;;;;;4969818;28;20416;-72
2022/11/04 03:55:50;;;;;;;1.42;0.70;;;10.40;99.90;;;;;;4971057;28;20412;-71
2022/11/04 03:58:41;;;;;;;1.30;0.70;;;10.40;99.90;;;;;;4971451;28;20399;-71
2022/11/04 04:01:47;;;;;;;1.70;0.85;;;10.50;99.90;;;;;;4969846;28;20419;-72
2022/11/04 04:04:31;;;;;;;1.80;0.70;;;10.40;99.90;;;;;;4970871;28;20427;-70
2022/11/04 04:07:03;;;;;;;2.00;0.77;;;10.40;99.90;;;;;;4969933;28;20403;-72
2022/11/04 04:10:37;;;;;;;1.90;0.80;;;10.40;99.90;;;;;;4971239;28;20454;-71
2022/11/04 04:12:53;;;;;;;2.13;0.88;;;10.40;99.90;;;;;;4970865;28;20443;-72
2022/11/04 04:15:25;;;;;;;2.35;0.70;;;10.40;99.90;;;;;;4971043;28;20438;-71
2022/11/04 04:18:01;;;;;;;3.30;1.13;;;10.40;99.90;;;;;;4971258;28;20407;-71
2022/11/04 04:20:30;;;;;;;1.02;0.60;;;10.30;99.90;;;;;;4970910;28;20471;-72
2022/11/04 04:27:29;;;;;;;1.20;0.60;;;10.40;99.90;;;;;;4969922;28;20399;-72
2022/11/04 04:28:40;;;;;;;2.47;1.00;;;10.50;99.90;;;;;;4970766;28;20459;-72
2022/11/04 04:31:10;;;;;;;1.88;0.80;;;10.50;99.90;;;;;;4970975;28;20388;-72
2022/11/04 04:33:37;;;;;;;1.05;0.70;;;10.50;99.90;;;;;;4970971;28;20446;-71
2022/11/04 04:36:05;;;;;;;1.65;0.70;;;10.50;99.90;;;;;;4971219;28;20408;-70
2022/11/04 04:47:09;;;;;;;2.20;0.70;;;10.30;99.90;;;;;;4971371;28;20454;-71
2022/11/04 04:49:34;;;;;;;1.60;0.90;;;10.40;99.90;;;;;;4971614;28;20924;-72
2022/11/04 04:52:02;;;;;;;1.00;0.70;;;10.30;99.90;;;;;;4975695;28;20471;-72
2022/11/04 04:54:27;;;;;;;1.30;0.80;;;10.30;99.90;;;;;;4974262;28;20399;-71
2022/11/04 04:56:53;;;;;;;1.20;0.52;;;10.30;99.90;;;;;;4974580;28;20979;-71
2022/11/04 04:59:18;;;;;;;1.63;0.75;;;10.30;99.90;;;;;;4974591;28;20894;-72
2022/11/04 05:01:44;;;;;;;3.47;0.80;;;10.30;99.90;;;;;;4974515;28;20388;-72
2022/11/04 05:04:10;;;;;;;1.50;0.67;;;10.20;99.90;;;;;;4974045;28;20883;-72
2022/11/04 05:06:35;;;;;;;2.30;0.70;;;10.40;99.90;;;;;;4974412;28;20938;-71
2022/11/04 05:09:01;;;;;;;2.60;0.70;;;10.40;99.90;;;;;;4974392;28;20390;-72
2022/11/04 05:11:26;;;;;;;1.98;0.75;;;10.40;99.90;;;;;;4974307;28;21172;-73
2022/11/04 05:13:52;;;;;;;3.30;0.90;;;10.40;99.90;;;;;;4974077;28;20411;-72
2022/11/04 05:16:17;;;;;;;2.20;0.70;;;10.40;99.90;;;;;;4974164;28;20393;-71
2022/11/04 05:18:43;;;;;;;2.30;0.80;;;10.40;99.90;;;;;;4973906;28;20388;-72
2022/11/04 05:21:12;;;;;;;1.52;0.95;;;10.40;99.90;;;;;;4973995;28;20536;-71
2022/11/04 05:23:38;;;;;;;1.10;0.80;;;10.50;99.90;;;;;;4973689;28;20380;-72
2022/11/04 05:26:04;;;;;;;1.20;0.63;;;10.30;99.90;;;;;;4972787;28;20887;-73
2022/11/04 05:28:29;;;;;;;1.50;0.80;;;10.30;99.90;;;;;;4973678;28;20810;-72
2022/11/04 05:30:55;;;;;;;2.30;0.70;;;10.20;99.90;;;;;;4974062;28;20392;-71
2022/11/04 05:33:21;;;;;;;3.10;0.73;;;10.30;99.90;;;;;;4973614;28;20906;-71
2022/11/04 05:35:46;;;;;;;3.10;1.00;;;10.30;99.90;;;;;;4973580;28;20408;-72
2022/11/04 05:38:12;;;;;;;2.50;0.97;;;10.30;99.90;;;;;;4973753;28;20436;-71
2022/11/04 05:40:37;;;;;;;3.00;0.70;;;10.40;99.90;;;;;;4973622;28;20853;-72
2022/11/04 05:43:03;;;;;;;4.20;0.90;;;10.50;99.90;;;;;;4973237;28;20881;-71
2022/11/04 05:45:28;;;;;;;2.07;1.10;;;10.50;99.90;;;;;;4973470;28;20389;-71
2022/11/04 05:47:59;;;;;;;1.50;0.70;;;10.40;99.90;;;;;;4973476;28;20384;-72
2022/11/04 05:50:24;;;;;;;3.20;0.80;;;10.50;99.90;;;;;;4973553;28;20480;-71
2022/11/04 05:52:50;;;;;;;3.30;1.00;;;10.40;99.90;;;;;;4973102;28;20488;-72
2022/11/04 05:55:15;;;;;;;2.60;1.20;;;10.30;99.90;;;;;;4982631;23;20437;-71
2022/11/04 05:57:41;;;;;;;1.90;0.70;;;10.20;99.90;;;;;;4954029;29;20440;-72
2022/11/04 06:00:08;;;;;;;3.00;0.90;;;10.10;99.90;;;;;;4954006;29;20938;-71
2022/11/04 06:02:34;;;;;;;2.75;1.00;;;9.90;99.90;;;;;;4952452;28;20396;-72
2022/11/04 06:04:59;;;;;;;1.60;0.70;;;9.80;99.90;;;;;;4953846;29;20382;-72
2022/11/04 06:07:25;;;;;;;1.70;0.90;;;10.10;99.90;;;;;;4953750;28;20441;-71
2022/11/04 06:09:50;;;;;;;3.10;1.00;;;10.20;99.90;;;;;;4953850;28;20397;-71
2022/11/04 06:12:16;;;;;;;2.38;1.10;;;10.10;99.90;;;;;;4953653;28;20455;-73
2022/11/04 06:14:42;;;;;;;2.80;0.70;;;9.90;99.90;;;;;;4953348;28;20441;-73
2022/11/04 06:17:14;;;;;;;3.40;1.40;;;10.10;99.90;;;;;;4953346;28;20771;-73
2022/11/04 06:19:39;;;;;;;2.25;0.75;;;10.10;99.90;;;;;;4953597;29;20517;-71
2022/11/04 06:22:05;;;;;;;3.00;1.00;;;9.70;99.90;;;;;;4953467;28;20932;-71
2022/11/04 06:24:30;;;;;;;2.30;0.90;;;9.80;99.90;;;;;;4953237;28;20448;-72
2022/11/04 06:26:56;;;;;;;2.43;1.00;;;10.00;99.90;;;;;;4953335;28;20409;-71
2022/11/04 06:29:21;;;;;;;4.60;1.17;;;10.10;99.90;;;;;;4953534;28;20394;-71
2022/11/04 06:31:47;;;;;;;3.00;1.00;;;10.10;99.90;;;;;;4953389;28;20393;-71
2022/11/04 06:34:12;;;;;;;2.40;0.90;;;10.00;99.90;;;;;;4953078;28;20386;-72
2022/11/04 06:36:38;;;;;;;3.00;0.80;;;9.90;99.90;;;;;;4953291;28;20394;-72
2022/11/04 06:39:04;;;;;;;3.90;1.00;;;9.50;99.90;;;;;;4968137;28;20482;-72
2022/11/04 06:41:30;;;;;;;1.73;1.43;;;9.50;99.90;;;;;;4952936;28;20409;-72
2022/11/04 06:43:55;;;;;;;2.50;1.37;;;9.50;99.90;;;;;;4952590;28;20386;-72
2022/11/04 06:46:38;;;;;;;3.20;1.30;;;9.50;99.90;;;;;;4953400;28;20808;-72
2022/11/04 06:49:05;;;;;;;2.15;1.10;;;9.50;99.90;;;;;;4953035;28;20394;-72
2022/11/04 06:51:32;;;;;;;1.70;1.27;;;9.40;99.90;;;;;;4950327;28;20421;-72
2022/11/04 06:53:57;;;;;;;2.50;1.20;;;9.50;99.90;;;;;;4949579;28;20421;-72
2022/11/04 06:56:23;;;;;;;3.27;1.40;;;9.50;99.90;;;;;;4953350;28;20466;-72
2022/11/04 06:58:50;;;;;;;2.00;1.30;;;9.50;99.90;;;;;;4966926;28;20406;-72
2022/11/04 07:01:17;;;;;;;5.80;1.55;;;9.50;99.90;;;;;;4960080;28;20828;-71
2022/11/04 07:03:43;;;;;;;3.33;1.50;;;9.50;99.90;;;;;;4954179;28;20446;-71
2022/11/04 07:06:09;;;;;;;2.20;1.75;;;9.50;99.90;;;;;;4951579;28;20433;-72
2022/11/04 07:08:35;;;;;;;2.40;1.50;;;9.50;99.90;;;;;;4950906;28;20449;-71
2022/11/04 07:11:01;;;;;;;1.90;1.40;;;9.60;99.90;;;;;;4948865;28;20825;-71
2022/11/04 07:13:27;;;;;;;3.35;1.50;;;9.60;99.90;;;;;;4949853;28;20429;-72
2022/11/04 07:15:53;;;;;;;2.00;1.40;;;9.50;99.90;;;;;;4952099;29;20924;-72
2022/11/04 07:18:19;;;;;;;3.08;1.40;;;9.60;99.90;;;;;;4945914;28;20427;-71
2022/11/04 07:20:44;;;;;;;2.03;1.30;;;9.60;99.90;;;;;;4950277;28;20553;-71
2022/11/04 07:23:10;;;;;;;3.60;1.20;;;9.60;99.90;;;;;;4954116;28;20409;-71
2022/11/04 07:25:35;;;;;;;2.50;1.30;;;9.50;99.90;;;;;;4950556;28;20458;-72
2022/11/04 07:28:01;;;;;;;3.63;2.33;;;9.70;99.90;;;;;;4952190;28;20450;-73
2022/11/04 07:30:26;;;;;;;4.88;2.20;;;9.80;99.90;;;;;;4952959;28;20417;-72
2022/11/04 07:32:52;;;;;;;2.93;1.60;;;9.90;99.90;;;;;;4952724;28;20492;-73
2022/11/04 07:35:18;;;;;;;2.90;1.20;;;9.80;99.90;;;;;;4945743;28;20881;-73
2022/11/04 07:37:43;;;;;;;2.20;1.40;;;9.80;99.90;;;;;;4951350;28;20417;-72
2022/11/04 07:40:10;;;;;;;5.70;1.60;;;9.80;99.90;;;;;;4951806;28;20504;-72
2022/11/04 07:42:36;;;;;;;2.70;1.30;;;9.80;99.90;;;;;;4945021;28;20907;-72
2022/11/04 07:45:01;;;;;;;3.50;1.40;;;9.90;99.90;;;;;;4951182;28;20503;-72
2022/11/04 07:47:30;;;;;;;3.67;1.33;;;10.00;99.90;;;;;;4948285;28;20418;-72
2022/11/04 07:49:56;;;;;;;3.30;1.40;;;10.00;99.90;;;;;;4946064;29;20899;-72
2022/11/04 07:52:21;;;;;;;3.60;1.30;;;10.00;99.90;;;;;;4944476;28;20414;-71
2022/11/04 07:54:47;;;;;;;5.53;1.60;;;10.00;99.90;;;;;;4948130;28;20417;-72
2022/11/04 07:57:12;;;;;;;3.00;1.20;;;10.00;99.90;;;;;;4950555;28;20417;-72
2022/11/04 07:59:38;;;;;;;2.90;1.50;;;10.10;99.90;;;;;;4951337;28;20783;-72
2022/11/04 08:02:04;;;;;;;3.83;1.27;;;10.20;99.90;;;;;;4948084;28;20873;-72
2022/11/04 08:04:29;;;;;;;1.80;1.20;;;10.10;99.90;;;;;;4948575;28;20429;-72
2022/11/04 08:06:55;;;;;;;3.25;1.27;;;10.00;99.90;;;;;;4950360;28;20452;-72
2022/11/04 08:09:20;;;;;;;4.70;1.40;;;10.10;99.90;;;;;;4951517;28;20506;-71
2022/11/04 08:11:48;;;;;;;3.10;1.20;;;10.10;99.90;;;;;;4951396;28;20394;-72
2022/11/04 08:14:14;;;;;;;3.28;1.40;;;10.10;99.90;;;;;;4950081;28;20462;-72
2022/11/04 08:16:39;;;;;;;3.43;1.10;;;10.10;99.90;;;;;;4951672;29;20398;-72
2022/11/04 08:19:05;;;;;;;4.80;1.40;;;10.10;99.90;;;;;;4950386;29;20413;-72
2022/11/04 08:21:33;;;;;;;6.90;1.70;;;10.20;99.90;;;;;;4951640;28;20930;-73
2022/11/04 08:24:01;;;;;;;4.47;1.20;;;10.30;99.90;;;;;;4949653;28;20829;-72
2022/11/04 08:26:27;;;;;;;3.30;1.50;;;10.40;99.90;;;;;;4954420;28;20394;-72
2022/11/04 08:28:52;;;;;;;3.30;1.30;;;10.40;99.90;;;;;;4955483;29;20518;-72
2022/11/04 08:31:26;;;;;;;4.13;1.50;;;10.40;99.90;;;;;;4955455;28;20394;-72
2022/11/04 08:33:53;;;;;;;3.53;1.70;;;10.30;99.90;;;;;;4966124;28;20392;-72
2022/11/04 08:36:23;;;;;;;3.58;1.60;;;10.30;99.90;;;;;;4974605;28;20415;-74
2022/11/04 08:38:50;;;;;;;3.78;1.63;;;10.30;99.90;;;;;;4955825;28;20573;-71
2022/11/04 08:41:19;;;;;;;3.78;1.70;;;10.50;99.90;;;;;;4952049;28;20425;-71
2022/11/04 08:43:45;;;;;;;2.90;1.53;;;10.60;99.90;;;;;;4952828;28;20405;-71
2022/11/04 08:46:11;;;;;;;5.35;2.10;;;10.70;99.90;;;;;;4948481;28;20422;-72
2022/11/04 08:48:41;;;;;;;5.50;2.00;;;10.60;99.90;;;;;;4954972;29;20876;-72
2022/11/04 08:51:13;;;;;;;3.05;1.80;;;10.60;99.90;;;;;;4954946;28;20448;-72
2022/11/04 08:53:39;;;;;;;2.90;2.10;;;10.70;99.90;;;;;;4954415;28;20649;-72
2022/11/04 08:56:16;;;;;;;3.40;2.00;;;10.80;99.90;;;;;;4954836;28;20405;-72
2022/11/04 08:58:41;;;;;;;4.60;1.85;;;10.90;99.90;;;;;;4954872;29;20389;-72
2022/11/04 09:01:07;;;;;;;6.93;1.97;;;11.00;99.90;;;;;;4954635;29;20410;-72
2022/11/04 09:03:33;;;;;;;4.68;2.20;;;11.10;99.90;;;;;;4954388;29;20390;-72
2022/11/04 09:05:59;;;;;;;6.20;1.60;;;11.30;99.90;;;;;;4954811;29;20745;-72
2022/11/04 09:08:25;;;;;;;4.45;2.30;;;11.40;99.90;;;;;;4954467;28;20393;-72
2022/11/04 09:10:51;;;;;;;3.70;1.70;;;11.50;99.90;;;;;;4954696;28;20869;-72
2022/11/04 09:13:16;;;;;;;3.90;1.40;;;11.60;99.90;;;;;;4954495;28;20758;-72
2022/11/04 09:15:42;;;;;;;5.20;1.63;;;11.70;99.90;;;;;;4954291;28;20405;-72
2022/11/04 09:18:08;;;;;;;6.50;2.00;;;11.60;99.90;;;;;;4954158;28;20394;-71
2022/11/04 09:20:37;;;;;;;2.42;1.52;;;11.50;99.90;;;;;;4954171;28;20406;-71
2022/11/04 09:23:03;;;;;;;5.70;1.70;;;11.50;99.90;;;;;;4953938;29;20408;-72
2022/11/04 09:25:29;;;;;;;3.67;1.60;;;11.40;99.90;;;;;;4954448;28;20390;-72
2022/11/04 09:27:55;;;;;;;3.13;1.70;;;11.50;99.90;;;;;;4954323;29;20401;-72
2022/11/04 09:30:20;;;;;;;3.40;1.80;;;11.40;99.90;;;;;;4954035;28;20485;-72
2022/11/04 09:32:46;;;;;;;3.77;1.50;;;11.50;99.90;;;;;;4953927;28;20860;-72
2022/11/04 09:35:11;;;;;;;2.47;1.30;;;11.60;99.90;;;;;;4958945;28;20449;-72
2022/11/04 09:37:37;;;;;;;4.72;1.80;;;11.60;99.90;;;;;;4953638;28;20396;-74
2022/11/04 09:40:03;;;;;;;3.33;1.43;;;11.50;99.90;;;;;;4952402;28;20424;-74
2022/11/04 09:42:35;;;;;;;4.30;1.85;;;11.40;99.90;;;;;;4953734;28;20476;-74
2022/11/04 09:45:17;;;;;;;3.20;1.50;;;11.60;99.90;;;;;;4952248;28;20408;-74
2022/11/04 09:47:44;;;;;;;3.53;1.95;;;11.70;99.90;;;;;;4951438;29;20379;-74
2022/11/04 09:50:23;;;;;;;4.07;1.97;;;11.70;99.90;;;;;;4950694;28;20902;-74
2022/11/04 09:53:01;;;;;;;4.90;2.10;;;11.70;99.90;;;;;;4951071;28;20551;-75
2022/11/04 09:55:53;;;;;;;4.15;2.00;;;11.80;99.90;;;;;;4951480;28;20425;-74
2022/11/04 09:58:18;;;;;;;2.00;1.40;;;11.90;99.90;;;;;;4950938;29;20398;-74
2022/11/04 10:00:59;;;;;;;4.55;1.50;;;11.90;99.90;;;;;;4953725;29;20497;-74
2022/11/04 10:03:43;;;;;;;3.35;1.63;;;12.00;99.90;;;;;;4952914;28;20464;-75
2022/11/04 10:06:18;;;;;;;6.30;1.50;;;12.10;99.90;;;;;;4953463;28;20441;-73
2022/11/04 10:09:02;;;;;;;4.75;1.52;;;12.30;99.90;;;;;;4968040;28;20389;-73
2022/11/04 10:12:01;;;;;;;8.73;4.40;;;12.30;99.90;;;;;;4953122;29;20393;-72
2022/11/04 10:14:44;;;;;;;3.08;1.58;;;12.30;99.90;;;;;;4952323;29;20444;-73
2022/11/04 10:17:42;;;;;;;4.60;1.45;;;12.20;99.90;;;;;;4953652;28;20872;-74
2022/11/04 10:20:11;;;;;;;3.95;1.80;;;12.20;99.90;;;;;;4953216;28;20465;-72
2022/11/04 10:23:15;;;;;;;4.80;1.50;;;12.20;99.90;;;;;;4952405;28;20382;-72
2022/11/04 10:26:07;;;;;;;2.42;1.27;;;12.20;99.90;;;;;;4952238;29;20804;-73
2022/11/04 10:28:42;;;;;;;4.68;1.23;;;12.20;99.90;;;;;;4952955;28;20767;-73
2022/11/04 10:31:16;;;;;;;3.05;1.20;;;12.20;99.90;;;;;;4953443;28;20397;-72
2022/11/04 10:33:55;;;;;;;3.90;1.67;;;12.10;99.90;;;;;;4950100;28;20409;-73
2022/11/04 10:36:22;;;;;;;4.28;1.20;;;12.10;99.90;;;;;;4952598;28;20405;-73
2022/11/04 10:38:50;;;;;;;1.80;1.20;;;12.00;99.90;;;;;;4951318;28;20784;-76
2022/11/04 10:41:28;;;;;;;2.60;0.80;;;12.00;99.90;;;;;;4952738;28;20501;-76
2022/11/04 10:43:58;;;;;;;4.50;1.35;;;12.00;99.90;;;;;;4968017;28;20385;-76
2022/11/04 10:46:38;;;;;;;3.80;1.52;;;11.90;99.90;;;;;;4957056;28;20395;-75
2022/11/04 10:49:11;;;;;;;2.83;1.15;;;11.70;99.90;;;;;;4948705;28;20410;-74
2022/11/04 10:51:37;;;;;;;3.35;1.15;;;11.80;99.90;;;;;;4949908;28;20398;-75
2022/11/04 10:54:07;;;;;;;2.60;1.08;;;11.80;99.90;;;;;;4949176;28;20814;-74
2022/11/04 10:56:45;;;;;;;3.05;1.60;;;11.70;99.90;;;;;;4950506;28;20776;-73
2022/11/04 10:59:29;;;;;;;4.22;1.60;;;11.70;99.90;;;;;;4943595;28;20465;-73
2022/11/04 11:01:59;;;;;;;1.87;1.00;;;11.70;99.90;;;;;;4950478;28;20420;-73
2022/11/04 11:04:30;;;;;;;3.00;1.40;;;11.80;99.90;;;;;;4950343;28;20524;-73
2022/11/04 11:06:58;;;;;;;1.73;0.90;;;11.70;99.90;;;;;;4950090;28;20413;-73
2022/11/04 11:09:29;;;;;;;4.20;1.38;;;11.70;99.90;;;;;;4950973;29;20418;-73
2022/11/04 11:12:11;;;;;;;6.57;1.50;;;11.70;99.90;;;;;;4951917;28;20384;-73
2022/11/04 11:14:38;;;;;;;3.92;1.10;;;12.00;99.90;;;;;;4944307;29;20401;-73
2022/11/04 11:17:20;;;;;;;2.47;1.10;;;12.00;99.90;;;;;;4959816;28;20402;-73
2022/11/04 11:20:15;;;;;;;3.42;1.70;;;12.10;99.90;;;;;;4950370;28;20455;-73
2022/11/04 11:22:43;;;;;;;3.40;1.30;;;12.20;99.90;;;;;;4944960;28;20925;-73
2022/11/04 11:25:29;;;;;;;3.40;1.50;;;12.00;99.90;;;;;;4954543;28;20480;-73
2022/11/04 11:28:04;;;;;;;3.67;1.70;;;12.10;99.90;;;;;;4951643;28;20408;-73
2022/11/04 11:30:31;;;;;;;3.85;1.10;;;12.10;99.90;;;;;;4951739;28;20484;-72
2022/11/04 11:33:18;;;;;;;4.90;1.10;;;12.10;99.90;;;;;;4950824;28;20746;-72
2022/11/04 11:35:57;;;;;;;2.95;0.90;;;12.10;99.90;;;;;;4950541;28;21113;-73
2022/11/04 11:38:32;;;;;;;5.15;2.38;;;12.10;99.90;;;;;;4953898;28;20386;-73
2022/11/04 11:41:12;;;;;;;3.30;1.40;;;12.10;99.90;;;;;;4952255;28;20829;-73
2022/11/04 11:43:42;;;;;;;5.50;1.20;;;12.20;99.90;;;;;;4949727;29;20401;-73
2022/11/04 11:46:12;;;;;;;3.45;1.30;;;12.20;99.90;;;;;;4951247;28;20392;-73
2022/11/04 11:48:50;;;;;;;3.10;1.17;;;12.30;99.90;;;;;;4944731;29;20424;-73
2022/11/04 11:51:24;;;;;;;2.83;1.13;;;12.20;99.90;;;;;;4962451;28;20782;-73
2022/11/04 11:54:14;;;;;;;3.70;1.23;;;12.20;99.90;;;;;;4966277;28;20432;-73
2022/11/04 11:56:43;;;;;;;5.57;1.90;;;12.20;99.90;;;;;;4963136;23;20510;-74
2022/11/04 11:59:34;;;;;;;2.75;1.27;;;12.00;99.90;;;;;;4961654;28;20456;-74
2022/11/04 12:02:19;;;;;;;6.35;1.50;;;12.00;99.90;;;;;;4953290;28;20408;-73
2022/11/04 12:04:45;;;;;;;6.80;2.00;;;12.00;99.90;;;;;;4955043;28;20497;-73
2022/11/04 12:07:26;;;;;;;4.57;1.70;;;12.20;99.90;;;;;;4954977;28;20484;-74
2022/11/04 12:10:24;;;;;;;1.60;1.08;;;12.30;99.90;;;;;;4967654;28;20392;-74
2022/11/04 12:12:56;;;;;;;2.40;0.90;;;12.30;99.90;;;;;;4949249;28;20906;-74
2022/11/04 12:15:33;;;;;;;1.85;1.48;;;12.40;99.90;;;;;;4951196;28;20883;-74
2022/11/04 12:18:34;;;;;;;3.00;1.30;;;12.40;99.90;;;;;;4950869;28;20417;-73
2022/11/04 12:21:08;;;;;;;3.70;1.30;;;12.40;99.90;;;;;;4950875;28;20508;-74
2022/11/04 12:24:00;;;;;;;1.90;1.00;;;12.40;99.90;;;;;;4947824;28;20422;-74
2022/11/04 12:26:40;;;;;;;2.40;1.65;;;12.50;99.90;;;;;;4954591;28;20441;-75
2022/11/04 12:29:11;;;;;;;2.00;1.17;;;12.40;99.90;;;;;;4963387;28;20475;-74
2022/11/04 12:32:22;;;;;;;1.40;1.10;;;12.20;99.90;;;;;;4956873;28;20433;-73
2022/11/04 12:35:29;;;;;;;2.20;1.40;;;12.10;99.90;;;;;;4955274;28;20453;-74
2022/11/04 12:38:32;;;;;;;3.60;1.20;;;12.30;99.90;;;;;;4955176;28;20417;-74
2022/11/04 12:41:07;;;;;;;3.70;1.15;;;12.40;99.90;;;;;;4967351;28;20424;-75
2022/11/04 12:43:47;;;;;;;4.82;2.13;;;12.60;99.90;;;;;;4953602;28;20416;-73
2022/11/04 12:46:32;;;;;;;2.73;1.30;;;12.90;99.90;;;;;;4953203;28;20448;-75
2022/11/04 12:49:07;;;;;;;2.78;1.33;;;12.90;99.90;;;;;;4956681;28;20920;-74
2022/11/04 12:51:53;;;;;;;5.47;1.50;;;12.90;99.90;;;;;;4954804;28;20422;-75
2022/11/04 12:54:41;;;;;;;3.47;1.50;;;13.20;99.90;;;;;;4953964;28;20496;-73
2022/11/04 12:57:32;;;;;;;3.95;1.35;;;13.30;99.90;;;;;;4960793;28;20925;-75
2022/11/04 13:00:11;;;;;;;1.90;1.15;;;13.40;99.90;;;;;;4953385;28;20966;-75
2022/11/04 13:02:58;;;;;;;1.70;1.00;;;13.60;99.90;;;;;;4956840;28;20443;-74
2022/11/04 13:05:39;;;;;;;1.48;0.80;;;13.20;99.90;;;;;;4953681;29;20803;-73
2022/11/04 13:08:41;;;;;;;1.42;0.90;;;13.40;99.90;;;;;;4952396;29;20764;-74
2022/11/04 13:11:24;;;;;;;1.95;0.80;;;13.60;99.90;;;;;;4950737;28;20955;-74
2022/11/04 13:14:03;;;;;;;2.83;0.90;;;13.90;99.90;;;;;;4955659;28;20899;-74
2022/11/04 13:16:34;;;;;;;1.50;0.88;;;14.00;99.90;;;;;;4961179;28;20460;-74
2022/11/04 13:19:00;;;;;;;2.25;0.80;;;14.60;99.90;;;;;;4949642;29;20414;-75
2022/11/04 13:21:34;;;;;;;1.70;0.70;;;14.60;99.90;;;;;;4950640;28;20421;-74
2022/11/04 13:24:13;;;;;;;3.70;0.70;;;15.10;99.90;;;;;;4958999;28;20416;-75
2022/11/04 13:26:39;;;;;;;1.48;0.68;;;14.80;99.90;;;;;;4949033;28;20410;-74
2022/11/04 13:29:15;;;;;;;2.20;0.70;;;15.40;99.90;;;;;;4949715;28;20410;-75
2022/11/04 13:32:18;;;;;;;2.15;1.05;;;15.80;99.90;;;;;;4946470;28;20421;-74
2022/11/04 13:34:52;;;;;;;2.00;0.98;;;15.90;99.90;;;;;;4953312;28;20484;-75
2022/11/04 13:37:26;;;;;;;2.03;0.70;;;16.30;97.90;;;;;;4954878;28;20869;-74
2022/11/04 13:39:55;;;;;;;2.60;0.90;;;15.90;97.50;;;;;;4973460;28;20910;-74
2022/11/04 13:43:37;;;;;;;1.00;0.70;;;16.10;93.20;;;;;;4954950;28;20800;-75